Time;durP1;ratioP1;P1;durP2;ratioP2;P2;SDS_P1;SDS_P2;PMS_P1;PMS_P2;Temp;Humidity;BMP_temperature;BMP_pressure;BME280_temperature;BME280_humidity;BME280_pressure;Samples;Min_cycle;Max_cycle;Signal;HPM_P1;HPM_P2
2023/12/02 00:01:55;;;;;;;21.45;10.45;;;-0.70;99.90;;;;;;5009536;28;20045;-70
2023/12/02 00:04:21;;;;;;;20.50;11.00;;;-0.70;99.90;;;;;;4995008;28;20175;-69
2023/12/02 00:06:47;;;;;;;19.33;9.82;;;-0.70;99.90;;;;;;5010586;28;20129;-70
2023/12/02 00:09:12;;;;;;;21.05;10.45;;;-0.70;99.90;;;;;;5012496;28;20462;-70
2023/12/02 00:11:38;;;;;;;18.13;10.00;;;-0.70;99.90;;;;;;5013765;28;20171;-69
2023/12/02 00:14:04;;;;;;;18.42;10.18;;;-0.70;99.90;;;;;;5017475;28;20049;-70
2023/12/02 00:16:29;;;;;;;23.88;11.27;;;-0.70;99.90;;;;;;5000696;28;20048;-70
2023/12/02 00:18:55;;;;;;;19.98;10.82;;;-0.70;99.90;;;;;;5008487;28;20382;-70
2023/12/02 00:21:22;;;;;;;21.88;9.90;;;-0.70;99.90;;;;;;5026353;28;20114;-69
2023/12/02 00:23:48;;;;;;;19.17;9.88;;;-0.70;99.90;;;;;;5002591;28;20049;-70
2023/12/02 00:26:13;;;;;;;21.08;11.25;;;-0.70;99.90;;;;;;5008357;28;20042;-69
2023/12/02 00:28:39;;;;;;;26.88;11.63;;;-0.70;99.90;;;;;;5006203;28;20048;-70
2023/12/02 00:31:05;;;;;;;23.42;11.90;;;-0.70;99.90;;;;;;4995312;28;20041;-69
2023/12/02 00:33:31;;;;;;;22.10;11.40;;;-0.70;99.90;;;;;;5015543;28;20053;-70
2023/12/02 00:35:57;;;;;;;26.02;13.18;;;-0.60;99.90;;;;;;5002443;28;20057;-69
2023/12/02 00:38:22;;;;;;;24.13;11.63;;;-0.60;99.90;;;;;;5000277;28;20040;-69
2023/12/02 00:40:49;;;;;;;27.90;10.88;;;-0.70;99.90;;;;;;5014126;28;20041;-69
2023/12/02 00:43:15;;;;;;;21.90;11.27;;;-0.60;99.90;;;;;;5012963;28;20046;-69
2023/12/02 00:45:41;;;;;;;23.48;11.50;;;-0.60;99.90;;;;;;5028974;28;20040;-69
2023/12/02 00:48:07;;;;;;;25.50;11.57;;;-0.60;99.90;;;;;;5006956;28;20496;-69
2023/12/02 00:50:33;;;;;;;28.80;11.93;;;-0.70;99.90;;;;;;5012980;28;20439;-69
2023/12/02 00:52:59;;;;;;;19.27;10.80;;;-0.60;99.90;;;;;;5010852;28;20479;-70
2023/12/02 00:55:24;;;;;;;22.60;10.50;;;-0.70;99.90;;;;;;5004901;28;20041;-70
2023/12/02 00:57:50;;;;;;;21.88;11.55;;;-0.60;99.90;;;;;;5010335;28;20045;-70
2023/12/02 01:00:17;;;;;;;23.52;11.15;;;-0.70;99.90;;;;;;5010139;28;20485;-70
2023/12/02 01:02:43;;;;;;;19.98;10.85;;;-0.60;99.90;;;;;;5015945;28;20090;-70
2023/12/02 01:05:09;;;;;;;18.63;10.00;;;-0.60;99.90;;;;;;5027415;28;20440;-69
2023/12/02 01:07:35;;;;;;;24.80;11.55;;;-0.70;99.90;;;;;;5006147;28;20040;-70
2023/12/02 01:10:01;;;;;;;20.58;10.45;;;-0.70;99.90;;;;;;5000826;28;20048;-70
2023/12/02 01:12:27;;;;;;;20.77;10.32;;;-0.70;99.90;;;;;;5011245;28;20049;-70
2023/12/02 01:14:54;;;;;;;18.27;9.82;;;-0.60;99.90;;;;;;5009259;28;20088;-70
2023/12/02 01:17:19;;;;;;;24.63;13.90;;;-0.70;99.90;;;;;;5004250;28;20530;-70
2023/12/02 01:19:46;;;;;;;23.50;12.18;;;-0.70;99.90;;;;;;5012206;28;20073;-70
2023/12/02 01:22:12;;;;;;;25.67;11.77;;;-0.70;99.90;;;;;;5021698;28;20057;-70
2023/12/02 01:24:38;;;;;;;22.45;11.95;;;-0.70;99.90;;;;;;5013202;28;20091;-70
2023/12/02 01:27:04;;;;;;;19.33;10.45;;;-0.70;99.90;;;;;;5011801;28;20053;-70
2023/12/02 01:29:30;;;;;;;26.38;11.70;;;-0.70;99.90;;;;;;4986030;28;20049;-69
2023/12/02 01:31:55;;;;;;;19.95;10.02;;;-0.70;99.90;;;;;;4996196;28;20055;-68
2023/12/02 01:34:21;;;;;;;20.38;9.50;;;-0.60;99.90;;;;;;4994358;28;20048;-68
2023/12/02 01:36:47;;;;;;;18.13;9.63;;;-0.60;99.90;;;;;;5014464;28;20041;-68
2023/12/02 01:39:14;;;;;;;20.42;10.57;;;-0.70;99.90;;;;;;5022554;28;20637;-69
2023/12/02 01:41:40;;;;;;;18.13;8.88;;;-0.60;99.90;;;;;;5027537;28;20056;-69
2023/12/02 01:44:05;;;;;;;17.08;9.07;;;-0.70;99.90;;;;;;5015991;28;20103;-69
2023/12/02 01:46:31;;;;;;;21.67;11.25;;;-0.60;99.90;;;;;;5038348;28;20049;-68
2023/12/02 01:48:58;;;;;;;20.92;10.70;;;-0.70;99.90;;;;;;4992598;28;20057;-68
2023/12/02 01:51:25;;;;;;;21.15;9.95;;;-0.70;99.90;;;;;;5016996;28;20537;-69
2023/12/02 01:53:51;;;;;;;16.08;8.52;;;-0.70;99.90;;;;;;4991588;28;20064;-69
2023/12/02 01:56:18;;;;;;;20.65;9.65;;;-0.60;99.90;;;;;;5012594;28;20049;-68
2023/12/02 01:58:44;;;;;;;18.70;10.05;;;-0.70;99.90;;;;;;5006215;28;20053;-69
2023/12/02 02:01:09;;;;;;;21.48;10.77;;;-0.60;99.90;;;;;;5011054;28;20369;-69
2023/12/02 02:03:35;;;;;;;19.77;10.00;;;-0.70;99.90;;;;;;5037096;28;20108;-69
2023/12/02 02:06:01;;;;;;;20.02;10.18;;;-0.60;99.90;;;;;;5029734;28;20049;-69
2023/12/02 02:08:27;;;;;;;17.85;10.00;;;-0.70;99.90;;;;;;5006097;28;20136;-69
2023/12/02 02:11:00;;;;;;;20.92;10.10;;;-0.70;99.90;;;;;;5019249;28;20128;-69
2023/12/02 02:13:27;;;;;;;17.52;10.18;;;-0.60;99.90;;;;;;5007820;28;20128;-69
2023/12/02 02:15:53;;;;;;;19.35;9.75;;;-0.60;99.90;;;;;;5007859;28;20072;-69
2023/12/02 02:18:19;;;;;;;21.02;9.02;;;-0.60;99.90;;;;;;5013040;28;20052;-69
2023/12/02 02:20:53;;;;;;;18.98;9.05;;;-0.60;99.90;;;;;;5012686;28;20521;-69
2023/12/02 02:23:20;;;;;;;19.05;9.68;;;-0.60;99.90;;;;;;4994890;28;20042;-69
2023/12/02 02:25:49;;;;;;;17.73;8.70;;;-0.60;99.90;;;;;;4983623;28;20060;-69
2023/12/02 02:28:20;;;;;;;19.85;9.13;;;-0.60;99.90;;;;;;5026601;28;20519;-69
2023/12/02 02:30:46;;;;;;;23.05;9.88;;;-0.70;99.90;;;;;;5008244;28;20061;-69
2023/12/02 02:33:11;;;;;;;21.17;9.60;;;-0.60;99.90;;;;;;5012520;28;20048;-69
2023/12/02 02:35:38;;;;;;;20.38;9.52;;;-0.60;99.90;;;;;;4981329;28;20046;-68
2023/12/02 02:38:05;;;;;;;15.57;9.00;;;-0.70;99.90;;;;;;4992301;28;20056;-69
2023/12/02 02:40:31;;;;;;;24.67;10.05;;;-0.70;99.90;;;;;;5013911;28;20057;-69
2023/12/02 02:42:56;;;;;;;20.13;9.20;;;-0.80;99.90;;;;;;5005259;28;20408;-69
2023/12/02 02:45:23;;;;;;;19.20;9.50;;;-0.70;99.90;;;;;;5005347;28;20136;-69
2023/12/02 02:47:49;;;;;;;17.77;8.65;;;-0.80;99.90;;;;;;5007789;28;20054;-69
2023/12/02 02:50:15;;;;;;;16.30;7.90;;;-0.70;99.90;;;;;;5015021;28;20044;-68
2023/12/02 02:52:41;;;;;;;17.70;9.35;;;-0.70;99.90;;;;;;5032200;28;20050;-69
2023/12/02 02:55:07;;;;;;;17.50;8.98;;;-0.80;99.90;;;;;;5011202;28;20423;-69
2023/12/02 02:57:33;;;;;;;16.65;9.20;;;-0.70;99.90;;;;;;5020994;28;20054;-69
2023/12/02 02:59:59;;;;;;;16.95;9.27;;;-0.80;99.90;;;;;;5003739;28;20046;-69
2023/12/02 03:02:25;;;;;;;19.13;9.75;;;-0.80;99.90;;;;;;5012688;28;20128;-69
2023/12/02 03:04:50;;;;;;;17.02;9.18;;;-0.80;99.90;;;;;;5012229;28;20377;-68
2023/12/02 03:07:16;;;;;;;16.98;8.93;;;-0.80;99.90;;;;;;4996009;28;20045;-69
2023/12/02 03:09:42;;;;;;;18.88;8.98;;;-0.80;99.90;;;;;;5017309;28;20049;-69
2023/12/02 03:12:10;;;;;;;18.90;9.23;;;-0.80;99.90;;;;;;5023826;28;20555;-69
2023/12/02 03:14:37;;;;;;;15.05;9.15;;;-0.80;99.90;;;;;;5008911;28;20073;-69
2023/12/02 03:17:03;;;;;;;17.60;8.57;;;-0.80;99.90;;;;;;5028155;28;20048;-70
2023/12/02 03:19:29;;;;;;;17.38;9.38;;;-0.90;99.90;;;;;;5009834;28;20301;-69
2023/12/02 03:21:55;;;;;;;18.88;8.30;;;-0.80;99.90;;;;;;5029945;28;20097;-69
2023/12/02 03:24:20;;;;;;;15.00;7.28;;;-0.90;99.90;;;;;;5012518;28;20487;-69
2023/12/02 03:26:46;;;;;;;13.10;6.95;;;-0.90;99.90;;;;;;5009042;28;20544;-68
2023/12/02 03:29:12;;;;;;;20.70;8.70;;;-0.80;99.90;;;;;;5007290;28;20053;-69
2023/12/02 03:31:38;;;;;;;25.40;11.25;;;-0.90;99.90;;;;;;5006820;28;20435;-69
2023/12/02 03:34:04;;;;;;;26.17;10.15;;;-0.80;99.90;;;;;;5011672;28;20093;-69
2023/12/02 03:36:30;;;;;;;19.88;10.43;;;-0.80;99.90;;;;;;4994765;28;20130;-69
2023/12/02 03:38:56;;;;;;;13.13;8.02;;;-0.80;99.90;;;;;;4990082;28;20048;-69
2023/12/02 03:41:22;;;;;;;15.63;7.40;;;-0.80;99.90;;;;;;5021759;28;20933;-69
2023/12/02 03:43:48;;;;;;;15.35;8.63;;;-0.80;99.90;;;;;;4994159;28;20045;-68
2023/12/02 03:46:14;;;;;;;16.08;7.95;;;-0.70;99.90;;;;;;5012492;28;20487;-69
2023/12/02 03:48:39;;;;;;;16.48;7.57;;;-0.80;99.90;;;;;;4994623;28;20409;-68
2023/12/02 03:51:05;;;;;;;15.57;6.78;;;-0.70;99.90;;;;;;5003385;28;20129;-69
2023/12/02 03:53:34;;;;;;;14.35;7.85;;;-0.80;99.90;;;;;;5013938;28;20472;-68
2023/12/02 03:56:00;;;;;;;17.08;8.23;;;-0.80;99.90;;;;;;5007947;28;20120;-69
2023/12/02 03:58:27;;;;;;;17.65;8.50;;;-0.70;99.90;;;;;;4998706;28;20495;-68
2023/12/02 04:00:56;;;;;;;17.40;8.30;;;-0.70;99.90;;;;;;5007255;28;20559;-68
2023/12/02 04:03:22;;;;;;;18.02;8.73;;;-0.80;99.90;;;;;;5015873;28;20042;-69
2023/12/02 04:05:49;;;;;;;18.10;8.73;;;-0.70;99.90;;;;;;5008943;28;20056;-69
2023/12/02 04:08:17;;;;;;;19.10;8.75;;;-0.70;99.90;;;;;;4996095;28;20488;-69
2023/12/02 04:10:42;;;;;;;18.60;9.88;;;-0.70;99.90;;;;;;5024067;28;20048;-68
2023/12/02 04:13:08;;;;;;;19.77;10.10;;;-0.70;99.90;;;;;;5007135;28;20128;-68
2023/12/02 04:15:35;;;;;;;20.85;11.13;;;-0.70;99.90;;;;;;4995691;28;20047;-68
2023/12/02 04:18:01;;;;;;;15.27;8.70;;;-0.80;99.90;;;;;;4993280;28;20391;-69
2023/12/02 04:20:26;;;;;;;19.85;9.57;;;-0.80;99.90;;;;;;5022184;28;20061;-69
2023/12/02 04:22:53;;;;;;;18.60;9.38;;;-0.80;99.90;;;;;;5000885;28;20053;-68
2023/12/02 04:25:19;;;;;;;17.52;9.38;;;-0.80;99.90;;;;;;5019858;28;20095;-69
2023/12/02 04:27:46;;;;;;;16.42;8.32;;;-0.80;99.90;;;;;;5014903;28;20065;-69
2023/12/02 04:30:12;;;;;;;21.10;10.07;;;-0.70;99.90;;;;;;5004994;28;20057;-69
2023/12/02 04:32:38;;;;;;;22.00;9.73;;;-0.70;99.90;;;;;;4988868;28;20050;-68
2023/12/02 04:35:05;;;;;;;19.05;9.27;;;-0.80;99.90;;;;;;4999692;28;20092;-69
2023/12/02 04:37:31;;;;;;;20.10;9.63;;;-0.80;99.90;;;;;;5010462;28;20052;-69
2023/12/02 04:39:57;;;;;;;20.10;9.43;;;-0.70;99.90;;;;;;5009733;28;20068;-69
2023/12/02 04:42:23;;;;;;;21.38;9.23;;;-0.80;99.90;;;;;;5014309;28;20488;-69
2023/12/02 04:44:49;;;;;;;19.45;9.85;;;-0.80;99.90;;;;;;5005170;28;20041;-69
2023/12/02 04:47:15;;;;;;;18.30;9.38;;;-0.80;99.90;;;;;;5011569;28;20096;-69
2023/12/02 04:49:40;;;;;;;23.58;10.50;;;-0.80;99.90;;;;;;4993402;28;20406;-68
2023/12/02 04:52:06;;;;;;;20.33;10.23;;;-0.80;99.90;;;;;;5010496;28;20053;-69
2023/12/02 04:54:33;;;;;;;18.13;9.63;;;-0.70;99.90;;;;;;5009291;28;20095;-69
2023/12/02 04:57:02;;;;;;;19.75;10.00;;;-0.70;99.90;;;;;;4977800;28;20068;-69
2023/12/02 04:59:28;;;;;;;14.68;8.75;;;-0.80;99.90;;;;;;4993858;28;20052;-69
2023/12/02 05:01:54;;;;;;;14.55;9.40;;;-0.70;99.90;;;;;;5009013;28;20053;-69
2023/12/02 05:04:20;;;;;;;18.52;9.27;;;-0.70;99.90;;;;;;5010600;28;20064;-69
2023/12/02 05:06:46;;;;;;;20.45;9.60;;;-0.70;99.90;;;;;;5008681;28;20046;-69
2023/12/02 05:09:12;;;;;;;18.50;8.82;;;-0.70;99.90;;;;;;5010408;28;20049;-68
2023/12/02 05:11:38;;;;;;;13.05;6.95;;;-0.70;99.90;;;;;;5015711;28;20041;-69
2023/12/02 05:14:03;;;;;;;18.08;8.15;;;-0.80;99.90;;;;;;4995296;28;20060;-69
2023/12/02 05:16:29;;;;;;;18.85;8.60;;;-0.70;99.90;;;;;;5021782;28;20041;-69
2023/12/02 05:18:55;;;;;;;19.08;9.30;;;-0.70;99.90;;;;;;4973321;28;20140;-69
2023/12/02 05:21:20;;;;;;;16.02;8.80;;;-0.70;99.90;;;;;;5024662;28;20060;-69
2023/12/02 05:23:46;;;;;;;19.33;8.95;;;-0.70;99.90;;;;;;5005850;28;20046;-69
2023/12/02 05:26:12;;;;;;;14.20;7.93;;;-0.70;99.90;;;;;;5011978;28;20396;-69
2023/12/02 05:28:38;;;;;;;13.73;7.85;;;-0.70;99.90;;;;;;5009415;28;20384;-69
2023/12/02 05:31:05;;;;;;;18.10;8.43;;;-0.60;99.90;;;;;;4995448;28;20053;-69
2023/12/02 05:33:31;;;;;;;17.48;9.07;;;-0.60;99.90;;;;;;4999628;28;20048;-69
2023/12/02 05:35:57;;;;;;;18.13;10.20;;;-0.70;99.90;;;;;;5006142;28;20049;-69
2023/12/02 05:38:23;;;;;;;20.85;9.50;;;-0.60;99.90;;;;;;4997210;28;20052;-69
2023/12/02 05:40:48;;;;;;;20.05;11.38;;;-0.70;99.90;;;;;;5018907;28;20053;-69
2023/12/02 05:43:14;;;;;;;21.95;11.63;;;-0.60;99.90;;;;;;4999557;28;20111;-69
2023/12/02 05:45:41;;;;;;;21.92;12.20;;;-0.60;99.90;;;;;;4998830;28;20052;-69
2023/12/02 05:48:07;;;;;;;22.65;11.55;;;-0.60;99.90;;;;;;5023878;28;20057;-69
2023/12/02 05:50:32;;;;;;;25.83;12.48;;;-0.60;99.90;;;;;;5030124;28;20621;-69
2023/12/02 05:52:58;;;;;;;22.13;11.95;;;-0.60;99.90;;;;;;5002336;28;20045;-69
2023/12/02 05:55:25;;;;;;;22.30;12.32;;;-0.60;99.90;;;;;;5020201;28;20510;-68
2023/12/02 05:57:52;;;;;;;31.52;15.40;;;-0.50;99.90;;;;;;4995207;28;20048;-69
2023/12/02 06:00:19;;;;;;;21.58;11.57;;;-0.60;99.90;;;;;;5026420;28;20045;-69
2023/12/02 06:02:45;;;;;;;20.10;9.57;;;-0.50;99.90;;;;;;5014723;28;20049;-68
2023/12/02 06:05:10;;;;;;;22.90;11.80;;;-0.60;99.90;;;;;;5007296;28;20046;-69
2023/12/02 06:07:36;;;;;;;19.52;9.88;;;-0.60;99.90;;;;;;5015385;28;20044;-68
2023/12/02 06:10:02;;;;;;;20.08;11.05;;;-0.60;99.90;;;;;;5010116;28;20049;-69
2023/12/02 06:12:28;;;;;;;24.10;14.52;;;-0.60;99.90;;;;;;5016600;28;20049;-69
2023/12/02 06:14:54;;;;;;;21.92;12.20;;;-0.60;99.90;;;;;;5001408;28;20038;-68
2023/12/02 06:17:19;;;;;;;17.33;8.57;;;-0.60;99.90;;;;;;5010302;28;20038;-69
2023/12/02 06:19:45;;;;;;;23.73;10.60;;;-0.70;99.90;;;;;;5010275;28;20040;-69
2023/12/02 06:22:11;;;;;;;19.80;9.65;;;-0.60;99.90;;;;;;5017505;28;21019;-69
2023/12/02 06:24:36;;;;;;;18.80;10.15;;;-0.60;99.90;;;;;;4998804;28;20400;-68
2023/12/02 06:27:03;;;;;;;21.30;11.75;;;-0.70;99.90;;;;;;5001780;28;20052;-69
2023/12/02 06:29:28;;;;;;;14.95;8.32;;;-0.70;99.90;;;;;;5010527;28;20052;-69
2023/12/02 06:31:54;;;;;;;20.25;10.15;;;-0.70;99.90;;;;;;5008563;28;20053;-69
2023/12/02 06:34:20;;;;;;;18.88;9.52;;;-0.60;99.90;;;;;;5010920;28;20476;-69
2023/12/02 06:36:46;;;;;;;16.27;8.00;;;-0.70;99.90;;;;;;5012690;28;20116;-69
2023/12/02 06:39:15;;;;;;;16.08;8.38;;;-0.70;99.90;;;;;;5016904;28;20053;-69
2023/12/02 06:41:41;;;;;;;14.25;8.10;;;-0.70;99.90;;;;;;5000296;28;20041;-68
2023/12/02 06:44:07;;;;;;;11.13;6.03;;;-0.70;99.90;;;;;;4989027;28;20472;-69
2023/12/02 06:46:33;;;;;;;14.05;6.07;;;-0.70;99.90;;;;;;5008226;28;20037;-69
2023/12/02 06:49:00;;;;;;;16.63;8.45;;;-0.70;99.90;;;;;;4990878;28;20068;-69
2023/12/02 06:51:28;;;;;;;18.70;9.70;;;-0.70;99.90;;;;;;5010057;28;20511;-69
2023/12/02 06:53:57;;;;;;;25.85;14.32;;;-0.70;99.90;;;;;;5023718;28;20049;-69
2023/12/02 06:56:24;;;;;;;19.63;11.10;;;-0.70;99.90;;;;;;5007704;28;20500;-69
2023/12/02 06:58:51;;;;;;;24.67;12.52;;;-0.70;99.90;;;;;;5007362;28;20049;-69
2023/12/02 07:01:28;;;;;;;22.35;11.70;;;-0.80;99.90;;;;;;4999435;28;20051;-69
2023/12/02 07:03:55;;;;;;;22.48;13.30;;;-0.70;99.90;;;;;;5037820;28;20131;-68
2023/12/02 07:06:21;;;;;;;21.63;10.05;;;-0.70;99.90;;;;;;5009063;28;20124;-68
2023/12/02 07:08:51;;;;;;;14.75;8.07;;;-0.80;99.90;;;;;;5002097;28;20046;-68
2023/12/02 07:11:17;;;;;;;20.48;7.43;;;-0.80;99.90;;;;;;5009043;28;20128;-68
2023/12/02 07:13:43;;;;;;;14.73;7.90;;;-0.70;99.90;;;;;;5014049;28;20124;-68
2023/12/02 07:16:09;;;;;;;17.45;10.05;;;-0.70;99.90;;;;;;5009056;28;20372;-68
2023/12/02 07:18:35;;;;;;;23.70;10.27;;;-0.80;99.90;;;;;;5017321;28;20049;-68
2023/12/02 07:21:01;;;;;;;20.25;11.15;;;-0.80;99.90;;;;;;5023994;28;20107;-68
2023/12/02 07:23:28;;;;;;;19.95;9.90;;;-0.80;99.90;;;;;;5022123;28;20061;-68
2023/12/02 07:25:55;;;;;;;24.13;12.85;;;-0.80;99.90;;;;;;4991924;28;20054;-68
2023/12/02 07:28:21;;;;;;;20.70;10.73;;;-0.80;99.90;;;;;;5007232;28;20082;-68
2023/12/02 07:30:48;;;;;;;20.30;12.02;;;-0.80;99.90;;;;;;4990326;28;20080;-68
2023/12/02 07:33:14;;;;;;;22.63;11.70;;;-0.80;99.90;;;;;;5005662;28;20053;-68
2023/12/02 07:35:40;;;;;;;17.20;10.02;;;-0.80;99.90;;;;;;5003349;28;20049;-69
2023/12/02 07:38:05;;;;;;;23.58;12.35;;;-0.80;99.90;;;;;;5020617;28;20455;-69
2023/12/02 07:40:31;;;;;;;25.83;13.15;;;-0.80;99.90;;;;;;4985798;28;20049;-69
2023/12/02 07:42:57;;;;;;;22.60;10.82;;;-0.90;99.90;;;;;;4989194;28;20128;-69
2023/12/02 07:45:23;;;;;;;20.70;9.88;;;-0.90;99.90;;;;;;5010802;28;20060;-69
2023/12/02 07:47:49;;;;;;;17.83;10.85;;;-0.80;99.90;;;;;;5024218;28;20525;-69
2023/12/02 07:50:15;;;;;;;23.27;11.80;;;-0.90;99.90;;;;;;5001604;28;20037;-69
2023/12/02 07:52:41;;;;;;;24.80;13.68;;;-0.80;99.90;;;;;;5016755;28;20052;-69
2023/12/02 07:55:07;;;;;;;23.85;12.65;;;-0.90;99.90;;;;;;5010160;28;20046;-69
2023/12/02 07:57:33;;;;;;;22.33;13.98;;;-0.80;99.90;;;;;;5020302;28;20048;-69
2023/12/02 07:59:59;;;;;;;28.58;16.70;;;-0.80;99.90;;;;;;4996923;28;20046;-69
2023/12/02 08:02:25;;;;;;;28.02;14.95;;;-0.80;99.90;;;;;;5016537;28;20049;-69
2023/12/02 08:04:51;;;;;;;22.17;12.18;;;-0.80;99.90;;;;;;5005978;28;20501;-69
2023/12/02 08:07:16;;;;;;;22.45;13.43;;;-0.70;99.90;;;;;;5028977;28;20095;-69
2023/12/02 08:09:42;;;;;;;23.58;13.40;;;-0.80;99.90;;;;;;5017487;28;20086;-69
2023/12/02 08:12:08;;;;;;;28.42;14.52;;;-0.70;99.90;;;;;;5013282;28;20408;-69
2023/12/02 08:14:34;;;;;;;26.02;12.73;;;-0.70;99.90;;;;;;5008011;28;20303;-68
2023/12/02 08:17:00;;;;;;;23.27;11.52;;;-0.70;99.90;;;;;;5016481;28;20606;-69
2023/12/02 08:19:25;;;;;;;22.77;11.82;;;-0.70;99.90;;;;;;5010574;28;20483;-69
2023/12/02 08:21:51;;;;;;;21.05;9.95;;;-0.70;99.90;;;;;;5010714;28;20045;-68
2023/12/02 08:24:17;;;;;;;18.95;10.45;;;-0.70;99.90;;;;;;4993534;28;20045;-69
2023/12/02 08:26:43;;;;;;;22.10;11.05;;;-0.70;99.90;;;;;;5006268;28;20484;-69
2023/12/02 08:29:08;;;;;;;17.40;10.27;;;-0.70;99.90;;;;;;4992463;28;20568;-69
2023/12/02 08:31:34;;;;;;;22.63;10.48;;;-0.80;99.90;;;;;;5011347;28;20049;-69
2023/12/02 08:34:00;;;;;;;19.63;10.05;;;-0.60;99.90;;;;;;4989147;28;20051;-69
2023/12/02 08:36:26;;;;;;;16.73;9.77;;;-0.60;99.90;;;;;;5011341;28;20172;-69
2023/12/02 08:38:51;;;;;;;19.00;9.65;;;-0.60;99.90;;;;;;5002517;28;20135;-68
2023/12/02 08:41:17;;;;;;;19.90;9.88;;;-0.60;99.90;;;;;;5006800;28;20033;-69
2023/12/02 08:43:43;;;;;;;18.98;9.20;;;-0.60;99.90;;;;;;5006949;28;20471;-68
2023/12/02 08:46:18;;;;;;;17.63;9.55;;;-0.60;99.90;;;;;;4991091;28;20084;-68
2023/12/02 08:48:45;;;;;;;20.42;10.95;;;-0.50;99.90;;;;;;5004528;28;20107;-69
2023/12/02 08:51:10;;;;;;;19.52;9.48;;;-0.50;99.90;;;;;;5016619;28;20455;-69
2023/12/02 08:53:36;;;;;;;17.70;9.88;;;-0.40;99.90;;;;;;5005895;28;20096;-69
2023/12/02 08:56:02;;;;;;;22.88;10.32;;;-0.40;99.90;;;;;;4998344;28;20047;-68
2023/12/02 08:58:28;;;;;;;19.08;10.18;;;-0.40;99.90;;;;;;5020743;28;20041;-68
2023/12/02 09:00:54;;;;;;;20.25;11.00;;;-0.30;99.90;;;;;;4985363;28;20065;-68
2023/12/02 09:03:20;;;;;;;17.20;9.75;;;-0.20;99.90;;;;;;5007091;28;20495;-69
2023/12/02 09:05:45;;;;;;;21.83;10.73;;;-0.20;99.90;;;;;;5010415;28;20120;-69
2023/12/02 09:08:11;;;;;;;19.55;9.63;;;-0.20;99.90;;;;;;5016222;28;20396;-69
2023/12/02 09:10:37;;;;;;;18.85;9.30;;;-0.20;99.90;;;;;;5039038;28;20102;-69
2023/12/02 09:13:23;;;;;;;17.55;10.38;;;-0.10;99.90;;;;;;5021133;28;20045;-69
2023/12/02 09:15:49;;;;;;;20.67;10.32;;;-0.10;99.90;;;;;;5017528;28;20048;-69
2023/12/02 09:18:25;;;;;;;22.15;11.32;;;-0.10;99.90;;;;;;5029399;28;20046;-68
2023/12/02 09:20:53;;;;;;;16.60;9.30;;;0.00;99.90;;;;;;5011728;28;20050;-69
2023/12/02 09:23:22;;;;;;;20.33;10.43;;;0.00;99.90;;;;;;5008997;28;20056;-69
2023/12/02 09:25:50;;;;;;;17.90;10.23;;;0.10;99.90;;;;;;5016459;28;20049;-69
2023/12/02 09:28:29;;;;;;;18.58;9.68;;;0.10;99.90;;;;;;5031334;28;20046;-69
2023/12/02 09:30:54;;;;;;;20.40;10.25;;;0.10;99.90;;;;;;5011830;28;20049;-68
2023/12/02 09:33:20;;;;;;;19.33;10.10;;;0.10;99.90;;;;;;5011098;28;20488;-68
2023/12/02 09:35:53;;;;;;;17.65;10.20;;;0.10;99.90;;;;;;5016804;28;20075;-69
2023/12/02 09:38:19;;;;;;;18.25;9.63;;;0.20;99.90;;;;;;5018933;28;20045;-69
2023/12/02 09:41:23;;;;;;;17.80;10.48;;;0.10;99.90;;;;;;5012419;28;20048;-69
2023/12/02 09:44:21;;;;;;;23.02;10.23;;;0.10;99.90;;;;;;5029190;28;20041;-69
2023/12/02 09:47:17;;;;;;;16.88;9.23;;;0.20;99.90;;;;;;4974350;28;20053;-69
2023/12/02 09:50:10;;;;;;;25.25;9.90;;;0.20;99.90;;;;;;5011222;28;20469;-69
2023/12/02 09:52:54;;;;;;;19.63;9.68;;;0.20;99.90;;;;;;5012135;28;20061;-68
2023/12/02 09:55:22;;;;;;;25.67;10.60;;;0.30;99.90;;;;;;5010852;28;20219;-69
2023/12/02 09:58:22;;;;;;;24.77;9.93;;;0.30;99.90;;;;;;5010454;28;20045;-69
2023/12/02 10:01:04;;;;;;;22.42;10.75;;;0.20;99.90;;;;;;5011303;28;20049;-68
2023/12/02 10:03:49;;;;;;;21.10;10.50;;;0.30;99.90;;;;;;5008207;28;20045;-69
2023/12/02 10:06:44;;;;;;;19.80;10.70;;;0.40;99.90;;;;;;4992355;28;20496;-69
2023/12/02 10:09:16;;;;;;;19.35;10.20;;;0.40;99.90;;;;;;5024159;28;20056;-69
2023/12/02 10:12:07;;;;;;;21.48;10.38;;;0.50;99.90;;;;;;5008474;28;20505;-68
2023/12/02 10:14:38;;;;;;;20.10;10.43;;;0.50;99.90;;;;;;5026811;28;20107;-69
2023/12/02 10:17:08;;;;;;;18.67;9.90;;;0.50;99.90;;;;;;5008711;28;20049;-69
2023/12/02 10:19:47;;;;;;;22.17;11.20;;;0.60;99.90;;;;;;5012200;28;20270;-69
2023/12/02 10:22:19;;;;;;;21.23;10.65;;;0.60;99.90;;;;;;5027348;28;20071;-69
2023/12/02 10:24:59;;;;;;;23.27;11.88;;;0.60;99.90;;;;;;5010093;28;20045;-69
2023/12/02 10:27:28;;;;;;;18.63;9.75;;;0.50;99.90;;;;;;5009256;28;20621;-69
2023/12/02 10:30:17;;;;;;;20.17;10.27;;;0.50;99.90;;;;;;5006585;28;20056;-69
2023/12/02 10:32:49;;;;;;;20.48;10.02;;;0.60;99.90;;;;;;4996184;28;20088;-70
2023/12/02 10:35:28;;;;;;;18.90;9.70;;;0.70;99.90;;;;;;5003073;28;20404;-70
2023/12/02 10:38:21;;;;;;;17.75;9.52;;;0.80;99.90;;;;;;5023469;28;20049;-70
2023/12/02 10:41:13;;;;;;;20.73;10.95;;;0.90;99.90;;;;;;5010633;28;20587;-70
2023/12/02 10:43:42;;;;;;;20.85;11.15;;;1.00;99.90;;;;;;4996020;28;20416;-70
2023/12/02 10:46:08;;;;;;;19.50;10.52;;;1.20;99.90;;;;;;5006664;28;20051;-70
2023/12/02 10:48:39;;;;;;;22.50;10.90;;;1.30;99.90;;;;;;5005920;28;20132;-70
2023/12/02 10:51:07;;;;;;;18.13;9.95;;;1.40;99.90;;;;;;5007574;28;20046;-71
2023/12/02 10:53:36;;;;;;;17.52;9.50;;;1.40;99.90;;;;;;5007071;28;20050;-71
2023/12/02 10:56:11;;;;;;;16.27;9.50;;;1.40;99.90;;;;;;4998499;28;20077;-71
2023/12/02 10:58:43;;;;;;;16.38;8.30;;;1.30;99.90;;;;;;5009321;28;20469;-71
2023/12/02 11:01:10;;;;;;;18.05;10.35;;;1.30;99.90;;;;;;5002971;28;20060;-71
2023/12/02 11:03:54;;;;;;;18.58;9.45;;;1.30;99.90;;;;;;4994948;28;20033;-71
2023/12/02 11:06:19;;;;;;;17.58;9.57;;;1.40;99.90;;;;;;5014366;28;21031;-71
2023/12/02 11:09:12;;;;;;;16.42;9.23;;;1.40;99.90;;;;;;5005064;28;20076;-71
2023/12/02 11:12:02;;;;;;;20.10;8.70;;;1.40;99.90;;;;;;5003538;28;20097;-71
2023/12/02 11:14:39;;;;;;;18.60;9.38;;;1.30;99.90;;;;;;5016731;28;20041;-71
2023/12/02 11:17:26;;;;;;;16.00;8.15;;;1.20;99.90;;;;;;4987049;28;20042;-71
2023/12/02 11:20:28;;;;;;;14.82;7.55;;;1.20;99.90;;;;;;5012678;28;20175;-71
2023/12/02 11:23:12;;;;;;;13.50;8.10;;;1.30;99.90;;;;;;5026303;28;20053;-71
2023/12/02 11:25:56;;;;;;;16.30;8.38;;;1.30;99.90;;;;;;4994109;28;20045;-71
2023/12/02 11:28:26;;;;;;;11.23;6.57;;;1.40;99.90;;;;;;5017738;28;20041;-71
2023/12/02 11:31:26;;;;;;;14.10;6.75;;;1.40;99.90;;;;;;4997404;28;20052;-71
2023/12/02 11:34:20;;;;;;;12.70;6.90;;;1.40;99.90;;;;;;5003097;28;20499;-72
2023/12/02 11:37:04;;;;;;;7.78;5.25;;;1.40;99.90;;;;;;4996057;28;20059;-71
2023/12/02 11:39:40;;;;;;;9.65;5.78;;;1.50;99.90;;;;;;4993750;28;20045;-71
2023/12/02 11:42:19;;;;;;;18.00;10.60;;;1.50;99.90;;;;;;5011870;28;20140;-71
2023/12/02 11:45:04;;;;;;;23.27;11.52;;;1.50;99.90;;;;;;5007633;28;20057;-71
2023/12/02 11:47:42;;;;;;;22.33;13.00;;;1.50;99.90;;;;;;5008590;28;20067;-71
2023/12/02 11:50:25;;;;;;;19.52;11.45;;;1.50;99.90;;;;;;5010495;28;20037;-71
2023/12/02 11:53:20;;;;;;;19.17;11.25;;;1.50;99.90;;;;;;5011393;28;20567;-71
2023/12/02 11:56:04;;;;;;;16.10;9.48;;;1.50;99.90;;;;;;5003743;28;20073;-71
2023/12/02 11:58:58;;;;;;;16.88;9.65;;;1.50;99.90;;;;;;5011934;28;20057;-71
2023/12/02 12:02:02;;;;;;;13.15;6.68;;;1.50;99.90;;;;;;5024399;28;20057;-71
2023/12/02 12:05:00;;;;;;;15.85;9.48;;;1.50;99.90;;;;;;5006715;28;20512;-71
2023/12/02 12:07:58;;;;;;;16.27;9.77;;;1.60;99.90;;;;;;5008228;28;20095;-71
2023/12/02 12:10:33;;;;;;;10.90;6.57;;;1.60;99.90;;;;;;5004752;28;20061;-71
2023/12/02 12:13:00;;;;;;;18.27;7.38;;;1.60;99.90;;;;;;5009719;28;20526;-71
2023/12/02 12:15:27;;;;;;;13.27;6.95;;;1.80;99.90;;;;;;4992800;28;20047;-71
2023/12/02 12:17:53;;;;;;;15.15;7.50;;;1.80;99.90;;;;;;5016298;28;20084;-71
2023/12/02 12:20:21;;;;;;;12.82;6.30;;;1.90;99.90;;;;;;5014531;28;20111;-71
2023/12/02 12:22:47;;;;;;;21.20;6.75;;;1.90;99.90;;;;;;5016035;28;20053;-71
2023/12/02 12:25:14;;;;;;;23.42;6.38;;;2.00;99.90;;;;;;4987024;28;20100;-71
2023/12/02 12:27:40;;;;;;;10.80;6.78;;;2.00;99.90;;;;;;4998694;28;20050;-71
2023/12/02 12:30:07;;;;;;;9.50;5.93;;;2.10;99.90;;;;;;4996180;28;20093;-71
2023/12/02 12:32:32;;;;;;;8.10;4.55;;;2.10;99.90;;;;;;5010171;28;20502;-71
2023/12/02 12:34:58;;;;;;;12.13;6.22;;;2.20;99.90;;;;;;5007680;28;20049;-71
2023/12/02 12:37:24;;;;;;;9.50;5.50;;;2.20;99.90;;;;;;5009818;28;20081;-71
2023/12/02 12:39:50;;;;;;;7.05;5.00;;;2.30;99.90;;;;;;5003017;28;20053;-71
2023/12/02 12:42:22;;;;;;;7.90;4.05;;;2.30;99.90;;;;;;5008950;28;20752;-71
2023/12/02 12:44:48;;;;;;;11.32;4.40;;;2.50;99.90;;;;;;5009389;28;20041;-72
2023/12/02 12:47:14;;;;;;;5.78;3.50;;;2.60;99.90;;;;;;4988135;28;20104;-71